Página principal
METAR-TAF:

METAR-TAF

Aeroportos :

Qurghonteppa, Tadjiquistão

latitude: 37-51-44N, longitude: 068-51-46E, altura: 449 m

Observação actual do tempo

O boletim foi feito há 23 minutos, às 06:00 UTC
Vento 4 kt de nor-noroeste, variando entre oes-noroeste e nor-nordeste
Temperatura 0°C
Humidade 100%
Pressão 1026 hPa
Visibilidade: 0050 m
nevoeiro gelado

METAR: UTDT 230600Z 34002MPS 300V020 0050 FZFG VV001 M00/M00 Q1026 R35/29//50 RMK QBB030 QFE730/0973

Hora: 11:23 (06:23 UTC)

Previsão

O boletim foi feito há 3 horas e 23 minutos, às 03:00 UTC
Previsão válida de 23 às 04 UTC a 23 às 13 UTC
Vento 4 kt com direcção variável
Visibilidade: 0200 m
a uma altura de 200 ft
nevoeiro gelado
Temporariamente
de 23 às 04 UTC a 23 às 06 UTC
Visibilidade: 0700 m
a uma altura de 300 ft
nevoeiro gelado
Tornando-se
de 23 às 06 UTC a 23 às 07 UTC
Visibilidade: 3100 m
neblina

TAF: UTDT 230300Z 2304/2313 VRB02MPS 0200 FZFG VV002 TEMPO 2304/2306 0700 FZFG VV003 BECMG 2306/2307 3100 BR

Observações e previsões do tempo de mais de 4000 aeroportos (mensagens METAR e TAF).

As estações disponíveis são os pontos amarelos e vermelhos sobre o mapa.

Mova o rato sobre o mapa para ver o nome da estação.

Depois clique no ponto para visualizar as observações e previsões meteorológicas.

Para alterar o mapa : clique nos botões verdes com uma cruz preta para aumentar o zoom; no botão verde com uma pitada de zoom; ou nas setas verdes para mapas adjacentes.


METAR-TAF: